createdAt,value
2019-02-16T00:00:21.312Z,5.90
2019-02-16T00:01:21.355Z,5.87
2019-02-16T00:02:21.287Z,5.89
2019-02-16T00:03:21.291Z,5.89
2019-02-16T00:04:21.278Z,5.84
2019-02-16T00:05:21.289Z,5.82
2019-02-16T00:06:21.270Z,5.79
2019-02-16T00:07:21.259Z,5.68
2019-02-16T00:08:21.256Z,5.62
2019-02-16T00:09:21.212Z,5.53
2019-02-16T00:10:21.241Z,5.47
2019-02-16T00:11:21.196Z,5.53
2019-02-16T00:12:21.191Z,5.69
2019-02-16T00:13:21.187Z,5.65
2019-02-16T00:14:21.174Z,5.69
2019-02-16T00:15:21.180Z,5.72
2019-02-16T00:16:21.157Z,5.71
2019-02-16T00:17:21.148Z,5.79
2019-02-16T00:18:22.966Z,5.84
2019-02-16T00:19:21.142Z,5.86
2019-02-16T00:20:21.131Z,5.87
2019-02-16T00:21:21.090Z,6.05
2019-02-16T00:22:21.080Z,5.90
2019-02-16T00:23:21.068Z,5.94
2019-02-16T00:24:21.062Z,5.93
2019-02-16T00:25:21.073Z,5.90
2019-02-16T00:26:21.038Z,5.94
2019-02-16T00:27:21.040Z,5.94
2019-02-16T00:28:21.041Z,5.93
2019-02-16T00:29:21.008Z,5.87
2019-02-16T00:30:21.028Z,5.97
2019-02-16T00:31:20.983Z,5.97
2019-02-16T00:32:20.989Z,5.97
2019-02-16T00:33:20.964Z,5.97
2019-02-16T00:34:20.961Z,5.97
2019-02-16T00:35:20.967Z,5.93
2019-02-16T00:36:20.953Z,5.87
2019-02-16T00:37:20.946Z,5.94
2019-02-16T00:38:20.921Z,5.80
2019-02-16T00:39:20.925Z,5.84
2019-02-16T00:40:20.903Z,5.84
2019-02-16T00:41:20.923Z,5.89
2019-02-16T00:42:20.869Z,5.91
2019-02-16T00:43:20.865Z,5.90
2019-02-16T00:44:20.851Z,5.91
2019-02-16T00:45:20.856Z,5.87
2019-02-16T00:46:20.868Z,5.87
2019-02-16T00:47:20.818Z,5.82
2019-02-16T00:48:20.811Z,5.89
2019-02-16T00:49:20.800Z,5.83
2019-02-16T00:50:20.822Z,5.79
2019-02-16T00:51:20.785Z,5.76
2019-02-16T00:52:20.789Z,5.75
2019-02-16T00:53:20.791Z,5.71
2019-02-16T00:54:20.781Z,5.68
2019-02-16T00:55:20.750Z,5.68
2019-02-16T00:56:20.788Z,5.72
2019-02-16T00:57:20.720Z,5.71
2019-02-16T00:58:20.707Z,5.68
2019-02-16T00:59:20.725Z,5.65
2019-02-16T01:00:20.718Z,5.66
2019-02-16T01:01:20.680Z,5.69
2019-02-16T01:02:20.682Z,5.71
2019-02-16T01:03:20.741Z,5.65
2019-02-16T01:04:20.643Z,5.69
2019-02-16T01:05:20.680Z,5.65
2019-02-16T01:06:20.648Z,5.66
2019-02-16T01:07:20.623Z,5.56
2019-02-16T01:08:20.611Z,5.61
2019-02-16T01:09:20.594Z,5.61
2019-02-16T01:10:20.610Z,5.64
2019-02-16T01:11:20.588Z,5.59
2019-02-16T01:12:20.560Z,5.53
2019-02-16T01:13:20.571Z,5.47
2019-02-16T01:14:20.564Z,5.41
2019-02-16T01:15:20.561Z,5.35
2019-02-16T01:16:20.529Z,5.29
2019-02-16T01:17:20.522Z,5.39
2019-02-16T01:18:20.500Z,5.30
2019-02-16T01:19:20.503Z,5.32
2019-02-16T01:20:20.521Z,5.32
2019-02-16T01:21:22.701Z,5.32
2019-02-16T01:22:20.478Z,5.30
2019-02-16T01:23:20.447Z,5.29
2019-02-16T01:24:20.446Z,5.25
2019-02-16T01:25:20.469Z,5.21
2019-02-16T01:26:20.431Z,5.07
2019-02-16T01:27:20.423Z,5.10
2019-02-16T01:28:20.418Z,5.10
2019-02-16T01:29:20.383Z,5.05
2019-02-16T01:30:20.378Z,5.00
2019-02-16T01:31:20.373Z,4.82
2019-02-16T01:32:20.388Z,4.73
2019-02-16T01:33:20.353Z,4.59
2019-02-16T01:34:20.349Z,4.38
2019-02-16T01:35:20.344Z,4.37
2019-02-16T01:36:20.310Z,4.44
2019-02-16T01:37:20.347Z,4.58
2019-02-16T01:38:20.308Z,4.70
2019-02-16T01:39:20.285Z,4.67
2019-02-16T01:40:20.279Z,4.77
2019-02-16T01:41:20.299Z,4.90
2019-02-16T01:42:20.287Z,4.87
2019-02-16T01:43:20.259Z,4.74
2019-02-16T01:44:20.271Z,4.53
2019-02-16T01:45:20.219Z,4.38
2019-02-16T01:46:20.208Z,4.42
2019-02-16T01:47:20.208Z,4.34
2019-02-16T01:48:20.220Z,4.34
2019-02-16T01:49:20.206Z,4.45
2019-02-16T01:50:20.207Z,4.49
2019-02-16T01:51:20.158Z,4.67
2019-02-16T01:52:20.151Z,4.67
2019-02-16T01:53:20.138Z,4.86
2019-02-16T01:54:20.139Z,4.86
2019-02-16T01:55:20.150Z,4.75
2019-02-16T01:56:20.114Z,4.86
2019-02-16T01:57:20.103Z,4.90
2019-02-16T01:58:20.087Z,5.04
2019-02-16T01:59:20.078Z,5.10
2019-02-16T02:00:20.099Z,5.20
2019-02-16T02:01:20.095Z,5.23
2019-02-16T02:02:20.048Z,5.25
2019-02-16T02:03:20.042Z,5.29
2019-02-16T02:04:20.039Z,5.28
2019-02-16T02:05:20.023Z,5.29
2019-02-16T02:06:20.031Z,5.30
2019-02-16T02:07:20.019Z,5.25
2019-02-16T02:08:20.037Z,5.29
2019-02-16T02:09:19.979Z,5.36
2019-02-16T02:10:19.974Z,5.36
2019-02-16T02:11:19.958Z,5.28
2019-02-16T02:12:19.952Z,5.38
2019-02-16T02:13:19.970Z,5.29
2019-02-16T02:14:19.960Z,5.33
2019-02-16T02:15:19.917Z,5.43
2019-02-16T02:16:19.909Z,5.43
2019-02-16T02:17:19.898Z,5.32
2019-02-16T02:18:19.913Z,5.36
2019-02-16T02:19:19.881Z,5.25
2019-02-16T02:20:19.885Z,5.23
2019-02-16T02:21:19.874Z,5.18
2019-02-16T02:22:19.878Z,5.17
2019-02-16T02:23:19.888Z,5.21
2019-02-16T02:24:19.854Z,5.21
2019-02-16T02:25:19.814Z,5.23
2019-02-16T02:26:19.824Z,5.20
2019-02-16T02:27:19.872Z,5.04
2019-02-16T02:28:19.787Z,5.05
2019-02-16T02:29:19.774Z,4.97
2019-02-16T02:30:19.829Z,4.82
2019-02-16T02:31:19.759Z,4.60
2019-02-16T02:32:19.797Z,4.42
2019-02-16T02:33:19.756Z,4.26
2019-02-16T02:34:19.725Z,4.06
2019-02-16T02:35:19.719Z,3.96
2019-02-16T02:36:19.699Z,3.78
2019-02-16T02:37:19.705Z,3.47
2019-02-16T02:38:19.711Z,3.37
2019-02-16T02:39:19.694Z,3.25
2019-02-16T02:40:19.661Z,3.03
2019-02-16T02:41:19.660Z,3.01
2019-02-16T02:42:19.754Z,3.01
2019-02-16T02:43:19.632Z,2.83
2019-02-16T02:44:19.651Z,2.71
2019-02-16T02:45:19.611Z,2.62
2019-02-16T02:46:19.599Z,2.56
2019-02-16T02:47:19.657Z,2.39
2019-02-16T02:48:19.581Z,2.36
2019-02-16T02:49:19.580Z,2.42
2019-02-16T02:50:19.593Z,2.49
2019-02-16T02:51:19.563Z,2.57
2019-02-16T02:52:19.560Z,2.62
2019-02-16T02:53:19.528Z,2.65
2019-02-16T02:54:19.546Z,2.68
2019-02-16T02:55:19.524Z,2.89
2019-02-16T02:56:19.525Z,3.10
2019-02-16T02:57:19.498Z,3.10
2019-02-16T02:58:19.478Z,3.21
2019-02-16T02:59:19.533Z,3.36
2019-02-16T03:00:19.472Z,3.55
2019-02-16T03:01:19.477Z,3.78
2019-02-16T03:02:19.451Z,3.91
2019-02-16T03:03:19.495Z,4.14
2019-02-16T03:04:19.417Z,4.35
2019-02-16T03:05:19.408Z,4.42
2019-02-16T03:06:19.401Z,4.62
2019-02-16T03:07:19.393Z,4.60
2019-02-16T03:08:19.421Z,4.52
2019-02-16T03:09:19.445Z,4.50
2019-02-16T03:10:19.357Z,4.53
2019-02-16T03:11:19.344Z,4.42
2019-02-16T03:12:19.365Z,4.40
2019-02-16T03:13:19.325Z,4.32
2019-02-16T03:14:19.344Z,4.37
2019-02-16T03:15:19.309Z,4.41
2019-02-16T03:16:19.294Z,4.52
2019-02-16T03:17:19.293Z,4.68
2019-02-16T03:18:19.276Z,4.58
2019-02-16T03:19:19.319Z,4.63
2019-02-16T03:20:19.258Z,4.56
2019-02-16T03:21:19.254Z,4.55
2019-02-16T03:22:19.234Z,4.56
2019-02-16T03:23:19.222Z,4.68
2019-02-16T03:24:19.255Z,4.63
2019-02-16T03:25:19.200Z,4.60
2019-02-16T03:26:19.187Z,4.60
2019-02-16T03:27:19.188Z,4.60
2019-02-16T03:28:19.172Z,4.63
2019-02-16T03:29:19.207Z,4.59
2019-02-16T03:30:19.150Z,4.55
2019-02-16T03:31:19.171Z,4.45
2019-02-16T03:32:19.160Z,4.34
2019-02-16T03:33:19.147Z,4.23
2019-02-16T03:34:19.133Z,4.23
2019-02-16T03:35:19.095Z,4.13
2019-02-16T03:36:19.133Z,4.12
2019-02-16T03:37:19.085Z,4.26
2019-02-16T03:38:19.092Z,4.40
2019-02-16T03:39:19.057Z,4.37
2019-02-16T03:40:19.067Z,4.50
2019-02-16T03:41:19.103Z,4.62
2019-02-16T03:42:19.020Z,4.70
2019-02-16T03:43:19.017Z,4.87
2019-02-16T03:44:19.000Z,4.74
2019-02-16T03:45:18.994Z,4.92
2019-02-16T03:46:19.012Z,4.94
2019-02-16T03:47:19.015Z,5.00
2019-02-16T03:48:18.986Z,5.00
2019-02-16T03:49:18.957Z,5.00
2019-02-16T03:50:18.938Z,5.04
2019-02-16T03:51:18.927Z,4.99
2019-02-16T03:52:18.955Z,4.86
2019-02-16T03:53:18.908Z,4.89
2019-02-16T03:54:18.915Z,4.92
2019-02-16T03:55:18.885Z,4.84
2019-02-16T03:56:18.882Z,4.75
2019-02-16T03:57:18.891Z,4.80
2019-02-16T03:58:18.868Z,4.77
2019-02-16T03:59:18.848Z,4.80
2019-02-16T04:00:18.835Z,4.89
2019-02-16T04:01:18.857Z,4.82
2019-02-16T04:02:18.850Z,4.90
2019-02-16T04:03:18.806Z,4.82
2019-02-16T04:04:18.800Z,4.82
2019-02-16T04:05:18.803Z,4.80
2019-02-16T04:06:18.807Z,4.74
2019-02-16T04:07:18.774Z,4.80
2019-02-16T04:08:18.766Z,4.84
2019-02-16T04:09:18.765Z,4.84
2019-02-16T04:10:18.735Z,4.86
2019-02-16T04:11:18.761Z,4.89
2019-02-16T04:12:18.719Z,4.94
2019-02-16T04:13:18.716Z,4.97
2019-02-16T04:14:18.701Z,5.00
2019-02-16T04:15:18.681Z,4.97
2019-02-16T04:16:18.822Z,4.89
2019-02-16T04:17:18.659Z,4.97
2019-02-16T04:18:18.650Z,4.96
2019-02-16T04:19:18.664Z,4.93
2019-02-16T04:20:18.668Z,4.89
2019-02-16T04:21:18.679Z,4.92
2019-02-16T04:22:24.641Z,4.84
2019-02-16T04:23:19.618Z,4.82
2019-02-16T04:24:18.609Z,4.89
2019-02-16T04:25:18.591Z,4.77
2019-02-16T04:26:18.599Z,4.80
2019-02-16T04:27:18.561Z,4.84
2019-02-16T04:28:18.554Z,4.82
2019-02-16T04:29:18.550Z,4.74
2019-02-16T04:30:18.527Z,4.74
2019-02-16T04:31:18.545Z,4.77
2019-02-16T04:32:18.507Z,4.80
2019-02-16T04:33:18.507Z,4.82
2019-02-16T04:34:18.534Z,4.66
2019-02-16T04:35:18.480Z,4.62
2019-02-16T04:36:18.464Z,4.67
2019-02-16T04:37:18.454Z,4.68
2019-02-16T04:38:18.472Z,4.71
2019-02-16T04:39:18.441Z,4.63
2019-02-16T04:40:18.462Z,4.67
2019-02-16T04:41:18.419Z,4.60
2019-02-16T04:42:18.418Z,4.62
2019-02-16T04:43:18.407Z,4.66
2019-02-16T04:44:18.425Z,4.71
2019-02-16T04:45:18.420Z,4.59
2019-02-16T04:46:18.371Z,4.60
2019-02-16T04:47:18.361Z,4.73
2019-02-16T04:48:18.376Z,4.71
2019-02-16T04:49:18.343Z,4.68
2019-02-16T04:50:18.326Z,4.68
2019-02-16T04:51:18.318Z,4.78
2019-02-16T04:52:18.312Z,4.74
2019-02-16T04:53:18.374Z,4.67
2019-02-16T04:54:18.294Z,4.66
2019-02-16T04:55:18.276Z,4.87
2019-02-16T04:56:18.273Z,4.82
2019-02-16T04:57:18.276Z,4.82
2019-02-16T04:58:18.270Z,4.77
2019-02-16T04:59:18.245Z,4.87
2019-02-16T05:00:18.275Z,4.74
2019-02-16T05:01:18.245Z,4.75
2019-02-16T05:02:18.208Z,4.82
2019-02-16T05:03:18.224Z,4.78
2019-02-16T05:04:18.204Z,4.84
2019-02-16T05:05:18.169Z,4.84
2019-02-16T05:06:18.162Z,4.86
2019-02-16T05:07:18.170Z,4.82
2019-02-16T05:08:18.174Z,4.90
2019-02-16T05:09:18.127Z,4.87
2019-02-16T05:10:18.141Z,4.86
2019-02-16T05:11:18.115Z,4.84
2019-02-16T05:12:18.129Z,4.84
2019-02-16T05:13:18.112Z,4.86
2019-02-16T05:14:18.082Z,4.87
2019-02-16T05:15:18.090Z,4.70
2019-02-16T05:16:18.057Z,4.80
2019-02-16T05:17:18.045Z,4.86
2019-02-16T05:18:18.070Z,4.75
2019-02-16T05:19:18.071Z,4.90
2019-02-16T05:20:18.018Z,4.84
2019-02-16T05:21:18.003Z,4.86
2019-02-16T05:22:18.011Z,4.86
2019-02-16T05:23:18.026Z,4.86
2019-02-16T05:24:17.985Z,4.73
2019-02-16T05:25:18.009Z,4.82
2019-02-16T05:26:17.954Z,4.68
2019-02-16T05:27:17.965Z,4.68
2019-02-16T05:28:17.967Z,4.63
2019-02-16T05:29:17.973Z,4.68
2019-02-16T05:30:17.912Z,4.59
2019-02-16T05:31:17.926Z,4.67
2019-02-16T05:32:17.891Z,4.62
2019-02-16T05:33:17.931Z,4.63
2019-02-16T05:34:17.873Z,4.63
2019-02-16T05:35:17.875Z,4.60
2019-02-16T05:36:17.858Z,4.63
2019-02-16T05:37:17.856Z,4.63
2019-02-16T05:38:17.855Z,4.67
2019-02-16T05:39:17.827Z,4.63
2019-02-16T05:40:17.814Z,4.70
2019-02-16T05:41:17.806Z,4.60
2019-02-16T05:42:17.874Z,4.68
2019-02-16T05:43:17.794Z,4.59
2019-02-16T05:44:17.803Z,4.67
2019-02-16T05:45:17.779Z,4.63
2019-02-16T05:46:17.747Z,4.60
2019-02-16T05:47:17.739Z,4.58
2019-02-16T05:48:17.758Z,4.59
2019-02-16T05:49:17.775Z,4.53
2019-02-16T05:50:17.709Z,4.53
2019-02-16T05:51:17.707Z,4.55
2019-02-16T05:52:17.701Z,4.60
2019-02-16T05:53:17.682Z,4.59
2019-02-16T05:54:17.691Z,4.63
2019-02-16T05:55:17.695Z,4.59
2019-02-16T05:56:17.653Z,4.58
2019-02-16T05:57:17.663Z,4.59
2019-02-16T05:58:17.632Z,4.66
2019-02-16T05:59:17.618Z,4.60
2019-02-16T06:00:17.617Z,4.59
2019-02-16T06:01:17.601Z,4.58
2019-02-16T06:02:17.615Z,4.62
2019-02-16T06:03:17.625Z,4.45
2019-02-16T06:04:17.577Z,4.42
2019-02-16T06:05:17.554Z,4.37
2019-02-16T06:06:17.575Z,4.37
2019-02-16T06:07:17.538Z,4.38
2019-02-16T06:08:17.530Z,4.34
2019-02-16T06:09:17.534Z,4.38
2019-02-16T06:10:17.548Z,4.32
2019-02-16T06:11:17.539Z,4.38
2019-02-16T06:12:17.487Z,4.37
2019-02-16T06:13:17.480Z,4.31
2019-02-16T06:14:17.473Z,4.20
2019-02-16T06:15:17.512Z,4.24
2019-02-16T06:16:17.455Z,4.10
2019-02-16T06:17:17.482Z,4.13
2019-02-16T06:18:17.428Z,4.14
2019-02-16T06:19:17.457Z,4.14
2019-02-16T06:20:17.403Z,4.19
2019-02-16T06:21:17.407Z,4.23
2019-02-16T06:22:17.430Z,4.24
2019-02-16T06:23:17.433Z,4.24
2019-02-16T06:24:17.372Z,4.24
2019-02-16T06:25:17.439Z,4.17
2019-02-16T06:26:17.345Z,4.17
2019-02-16T06:27:17.352Z,4.20
2019-02-16T06:28:17.329Z,4.04
2019-02-16T06:29:17.321Z,4.05
2019-02-16T06:30:17.336Z,4.13
2019-02-16T06:31:17.300Z,4.17
2019-02-16T06:32:17.293Z,4.02
2019-02-16T06:33:17.286Z,3.98
2019-02-16T06:34:17.272Z,3.98
2019-02-16T06:35:17.298Z,3.86
2019-02-16T06:36:17.247Z,3.84
2019-02-16T06:37:17.243Z,3.81
2019-02-16T06:38:17.226Z,3.91
2019-02-16T06:39:17.226Z,3.95
2019-02-16T06:40:17.242Z,4.04
2019-02-16T06:41:17.225Z,4.13
2019-02-16T06:42:17.193Z,4.13
2019-02-16T06:43:17.185Z,4.24
2019-02-16T06:44:17.163Z,4.24
2019-02-16T06:45:17.179Z,4.38
2019-02-16T06:46:17.177Z,4.24
2019-02-16T06:47:17.135Z,4.34
2019-02-16T06:48:17.144Z,4.19
2019-02-16T06:49:17.125Z,4.22
2019-02-16T06:50:17.118Z,4.22
2019-02-16T06:51:17.104Z,4.20
2019-02-16T06:52:17.124Z,4.10
2019-02-16T06:53:17.069Z,4.22
2019-02-16T06:54:17.063Z,4.13
2019-02-16T06:55:17.064Z,4.16
2019-02-16T06:56:19.040Z,4.26
2019-02-16T06:57:17.096Z,4.23
2019-02-16T06:58:17.034Z,4.42
2019-02-16T06:59:17.019Z,4.37
2019-02-16T07:00:17.007Z,4.30
2019-02-16T07:01:17.036Z,4.45
2019-02-16T07:02:17.006Z,4.42
2019-02-16T07:03:16.978Z,4.44
2019-02-16T07:04:16.967Z,4.49
2019-02-16T07:05:16.965Z,4.56
2019-02-16T07:06:16.938Z,4.56
2019-02-16T07:07:16.957Z,4.58
2019-02-16T07:08:16.940Z,4.68
2019-02-16T07:09:16.908Z,4.70
2019-02-16T07:10:16.910Z,4.73
2019-02-16T07:11:16.889Z,4.70
2019-02-16T07:12:16.928Z,4.78
2019-02-16T07:13:16.877Z,4.78
2019-02-16T07:14:16.861Z,4.93
2019-02-16T07:15:16.847Z,4.92
2019-02-16T07:16:16.851Z,4.90
2019-02-16T07:17:16.862Z,4.89
2019-02-16T07:18:16.816Z,4.96
2019-02-16T07:19:16.829Z,4.90
2019-02-16T07:20:16.833Z,4.97
2019-02-16T07:21:16.782Z,4.93
2019-02-16T07:22:16.788Z,4.89
2019-02-16T07:23:22.390Z,4.93
2019-02-16T07:24:17.754Z,5.02
2019-02-16T07:25:16.768Z,4.90
2019-02-16T07:26:16.757Z,5.00
2019-02-16T07:27:16.732Z,5.04
2019-02-16T07:28:16.740Z,5.11
2019-02-16T07:29:16.697Z,5.15
2019-02-16T07:30:16.742Z,5.23
2019-02-16T07:31:16.674Z,5.32
2019-02-16T07:32:16.668Z,5.35
2019-02-16T07:33:16.660Z,5.26
2019-02-16T07:34:16.648Z,5.33
2019-02-16T07:35:16.690Z,5.30
2019-02-16T07:36:16.620Z,5.36
2019-02-16T07:37:16.647Z,5.46
2019-02-16T07:38:16.614Z,5.43
2019-02-16T07:39:16.600Z,5.41
2019-02-16T07:40:16.623Z,5.39
2019-02-16T07:41:16.584Z,5.39
2019-02-16T07:42:16.568Z,5.51
2019-02-16T07:43:16.573Z,5.56
2019-02-16T07:44:16.537Z,5.54
2019-02-16T07:45:16.556Z,5.62
2019-02-16T07:46:16.529Z,5.59
2019-02-16T07:47:16.515Z,5.59
2019-02-16T07:48:16.541Z,5.68
2019-02-16T07:49:16.481Z,5.62
2019-02-16T07:50:16.488Z,5.72
2019-02-16T07:51:16.514Z,5.76
2019-02-16T07:52:16.467Z,5.82
2019-02-16T07:53:16.483Z,5.86
2019-02-16T07:54:16.439Z,5.90
2019-02-16T07:55:16.418Z,5.94
2019-02-16T07:56:16.414Z,5.89
2019-02-16T07:57:16.402Z,5.90
2019-02-16T07:58:16.420Z,5.93
2019-02-16T07:59:16.416Z,5.99
2019-02-16T08:00:16.386Z,6.01
2019-02-16T08:01:16.350Z,6.01
2019-02-16T08:02:16.380Z,6.01
2019-02-16T08:03:16.355Z,6.01
2019-02-16T08:04:16.322Z,5.98
2019-02-16T08:05:16.314Z,5.99
2019-02-16T08:06:16.307Z,6.11
2019-02-16T08:07:16.319Z,6.16
2019-02-16T08:08:16.341Z,6.14
2019-02-16T08:09:16.264Z,6.14
2019-02-16T08:10:16.308Z,6.11
2019-02-16T08:11:16.249Z,6.16
2019-02-16T08:12:16.245Z,6.20
2019-02-16T08:13:16.218Z,6.22
2019-02-16T08:14:16.229Z,6.19
2019-02-16T08:15:16.196Z,6.31
2019-02-16T08:16:16.188Z,6.35
2019-02-16T08:17:16.170Z,6.38
2019-02-16T08:18:16.188Z,6.51
2019-02-16T08:19:16.188Z,6.57
2019-02-16T08:20:16.140Z,6.51
2019-02-16T08:21:16.130Z,6.60
2019-02-16T08:22:16.127Z,6.62
2019-02-16T08:23:16.103Z,6.64
2019-02-16T08:24:16.131Z,6.74
2019-02-16T08:25:16.105Z,6.78
2019-02-16T08:26:16.078Z,6.84
2019-02-16T08:27:16.062Z,6.92
2019-02-16T08:28:16.102Z,6.85
2019-02-16T08:29:16.038Z,6.89
2019-02-16T08:30:16.052Z,6.93
2019-02-16T08:31:16.020Z,7.00
2019-02-16T08:32:16.005Z,6.96
2019-02-16T08:33:16.021Z,6.97
2019-02-16T08:34:15.989Z,7.02
2019-02-16T08:35:15.975Z,7.03
2019-02-16T08:36:15.993Z,7.06
2019-02-16T08:37:15.960Z,7.10
2019-02-16T08:38:15.973Z,7.17
2019-02-16T08:39:15.921Z,7.20
2019-02-16T08:40:15.911Z,7.24
2019-02-16T08:41:15.903Z,7.32
2019-02-16T08:42:15.887Z,7.28
2019-02-16T08:43:15.918Z,7.38
2019-02-16T08:44:15.903Z,7.56
2019-02-16T08:45:15.854Z,7.60
2019-02-16T08:46:15.845Z,7.54
2019-02-16T08:47:15.856Z,7.66
2019-02-16T08:48:15.845Z,7.60
2019-02-16T08:49:15.817Z,7.61
2019-02-16T08:50:15.815Z,7.76
2019-02-16T08:51:15.803Z,7.82
2019-02-16T08:52:15.789Z,7.83
2019-02-16T08:53:15.794Z,7.83
2019-02-16T08:54:15.753Z,7.85
2019-02-16T08:55:15.748Z,7.88
2019-02-16T08:56:15.749Z,7.90
2019-02-16T08:57:15.759Z,8.00
2019-02-16T08:58:15.710Z,8.01
2019-02-16T08:59:15.705Z,8.03
2019-02-16T09:00:15.693Z,8.08
2019-02-16T09:01:15.679Z,8.12
2019-02-16T09:02:15.706Z,8.15
2019-02-16T09:03:15.657Z,8.13
2019-02-16T09:04:15.640Z,8.18
2019-02-16T09:05:15.651Z,8.27
2019-02-16T09:06:15.620Z,8.31
2019-02-16T09:07:15.638Z,8.36
2019-02-16T09:08:15.598Z,8.36
2019-02-16T09:09:15.586Z,8.38
2019-02-16T09:10:15.577Z,8.51
2019-02-16T09:11:15.564Z,8.53
2019-02-16T09:12:15.586Z,8.53
2019-02-16T09:13:15.541Z,8.55
2019-02-16T09:14:15.526Z,8.58
2019-02-16T09:15:15.513Z,8.63
2019-02-16T09:16:15.509Z,8.71
2019-02-16T09:17:15.525Z,8.81
2019-02-16T09:18:15.483Z,8.81
2019-02-16T09:19:15.474Z,8.89
2019-02-16T09:20:15.481Z,8.92
2019-02-16T09:21:15.456Z,8.95
2019-02-16T09:22:15.468Z,9.03
2019-02-16T09:23:15.425Z,8.97
2019-02-16T09:24:15.422Z,8.99
2019-02-16T09:25:15.402Z,9.00
2019-02-16T09:26:15.392Z,9.00
2019-02-16T09:27:15.420Z,8.92
2019-02-16T09:28:15.381Z,8.95
2019-02-16T09:29:15.356Z,8.91
2019-02-16T09:30:15.338Z,8.95
2019-02-16T09:31:15.336Z,8.99
2019-02-16T09:32:15.355Z,8.97
2019-02-16T09:33:15.312Z,9.04
2019-02-16T09:34:15.295Z,9.23
2019-02-16T09:35:15.310Z,9.32
2019-02-16T09:36:15.294Z,9.32
2019-02-16T09:37:15.265Z,9.44
2019-02-16T09:38:15.247Z,9.43
2019-02-16T09:39:15.232Z,9.55
2019-02-16T09:40:15.253Z,9.54
2019-02-16T09:41:15.213Z,9.56
2019-02-16T09:42:15.202Z,9.66
2019-02-16T09:43:15.187Z,9.65
2019-02-16T09:44:15.171Z,9.58
2019-02-16T09:45:15.189Z,9.58
2019-02-16T09:46:15.147Z,9.65
2019-02-16T09:47:15.135Z,9.65
2019-02-16T09:48:15.128Z,9.80
2019-02-16T09:49:15.127Z,9.79
2019-02-16T09:50:15.145Z,9.80
2019-02-16T09:51:15.088Z,9.76
2019-02-16T09:52:15.117Z,9.83
2019-02-16T09:53:15.065Z,9.98
2019-02-16T09:54:15.050Z,10.07
2019-02-16T09:55:15.037Z,10.07
2019-02-16T09:56:15.026Z,10.09
2019-02-16T09:57:15.040Z,10.01
2019-02-16T09:58:15.005Z,9.94
2019-02-16T09:59:14.989Z,9.99
2019-02-16T10:00:14.976Z,10.12
2019-02-16T10:01:14.967Z,10.22
2019-02-16T10:02:14.975Z,10.20
2019-02-16T10:03:14.948Z,10.34
2019-02-16T10:04:14.925Z,10.40
2019-02-16T10:05:14.941Z,10.40
2019-02-16T10:06:14.907Z,10.46
2019-02-16T10:07:14.943Z,10.51
2019-02-16T10:08:14.883Z,10.56
2019-02-16T10:09:14.867Z,10.59
2019-02-16T10:10:14.854Z,10.71
2019-02-16T10:11:14.846Z,10.40
2019-02-16T10:12:14.860Z,10.56
2019-02-16T10:13:14.836Z,10.64
2019-02-16T10:14:14.802Z,10.76
2019-02-16T10:15:14.794Z,10.81
2019-02-16T10:16:14.779Z,10.64
2019-02-16T10:17:14.797Z,10.75
2019-02-16T10:18:14.759Z,10.87
2019-02-16T10:19:14.746Z,10.96
2019-02-16T10:20:14.769Z,11.22
2019-02-16T10:21:14.735Z,11.22
2019-02-16T10:22:14.709Z,11.73
2019-02-16T10:23:14.707Z,12.03
2019-02-16T10:24:17.808Z,12.55
2019-02-16T10:25:14.713Z,12.87
2019-02-16T10:26:14.664Z,13.25
2019-02-16T10:27:14.654Z,13.67
2019-02-16T10:28:14.644Z,13.39
2019-02-16T10:29:14.632Z,13.16
2019-02-16T10:30:14.650Z,13.28
2019-02-16T10:31:14.609Z,13.52
2019-02-16T10:32:14.599Z,13.42
2019-02-16T10:33:14.583Z,13.54
2019-02-16T10:34:14.621Z,13.77
2019-02-16T10:35:14.563Z,13.79
2019-02-16T10:36:14.557Z,14.04
2019-02-16T10:37:14.539Z,14.04
2019-02-16T10:38:14.528Z,13.62
2019-02-16T10:39:14.546Z,13.87
2019-02-16T10:40:14.507Z,13.81
2019-02-16T10:41:14.499Z,13.60
2019-02-16T10:42:14.485Z,13.63
2019-02-16T10:43:14.477Z,14.20
2019-02-16T10:44:14.490Z,14.69
2019-02-16T10:45:14.497Z,14.88
2019-02-16T10:46:14.439Z,14.72
2019-02-16T10:47:14.429Z,14.66
2019-02-16T10:48:14.417Z,14.84
2019-02-16T10:49:14.406Z,15.18
2019-02-16T10:50:14.423Z,15.43
2019-02-16T10:51:14.386Z,15.25
2019-02-16T10:52:14.375Z,14.58
2019-02-16T10:53:14.394Z,13.67
2019-02-16T10:54:14.357Z,13.12
2019-02-16T10:55:14.344Z,12.73
2019-02-16T10:56:14.335Z,12.45
2019-02-16T10:57:14.329Z,12.31
2019-02-16T10:58:14.335Z,12.22
2019-02-16T10:59:14.295Z,12.25
2019-02-16T11:00:14.288Z,12.21
2019-02-16T11:01:14.273Z,12.09
2019-02-16T11:02:14.806Z,12.09
2019-02-16T11:03:14.283Z,11.91
2019-02-16T11:04:14.272Z,11.90
2019-02-16T11:05:14.227Z,11.83
2019-02-16T11:06:14.216Z,11.83
2019-02-16T11:07:14.224Z,11.73
2019-02-16T11:08:14.222Z,11.62
2019-02-16T11:09:14.188Z,11.51
2019-02-16T11:10:14.172Z,11.52
2019-02-16T11:11:14.169Z,11.69
2019-02-16T11:12:14.160Z,11.87
2019-02-16T11:13:14.168Z,11.83
2019-02-16T11:14:14.126Z,11.83
2019-02-16T11:15:14.115Z,11.70
2019-02-16T11:16:14.108Z,11.66
2019-02-16T11:17:14.105Z,11.65
2019-02-16T11:18:14.118Z,11.69
2019-02-16T11:19:14.089Z,11.90
2019-02-16T11:20:14.060Z,11.91
2019-02-16T11:21:14.046Z,11.99
2019-02-16T11:22:14.045Z,11.83
2019-02-16T11:23:14.071Z,11.84
2019-02-16T11:24:14.039Z,11.63
2019-02-16T11:25:14.030Z,11.51
2019-02-16T11:26:13.991Z,11.59
2019-02-16T11:27:13.979Z,11.65
2019-02-16T11:28:13.974Z,11.68
2019-02-16T11:29:13.965Z,11.66
2019-02-16T11:30:13.977Z,11.57
2019-02-16T11:31:13.937Z,11.90
2019-02-16T11:32:13.926Z,12.00
2019-02-16T11:33:13.940Z,12.03
2019-02-16T11:34:13.926Z,12.07
2019-02-16T11:35:13.889Z,12.15
2019-02-16T11:36:13.879Z,12.07
2019-02-16T11:37:13.881Z,11.91
2019-02-16T11:38:13.883Z,12.06
2019-02-16T11:39:13.850Z,12.04
2019-02-16T11:40:13.835Z,12.09
2019-02-16T11:41:18.880Z,12.18
2019-02-16T11:42:14.807Z,12.31
2019-02-16T11:43:13.796Z,12.32
2019-02-16T11:44:13.806Z,12.27
2019-02-16T11:45:13.781Z,12.18
2019-02-16T11:46:13.794Z,12.18
2019-02-16T11:47:13.755Z,12.31
2019-02-16T11:48:13.748Z,12.54
2019-02-16T11:49:13.729Z,12.61
2019-02-16T11:50:13.759Z,12.76
2019-02-16T11:51:15.663Z,12.70
2019-02-16T11:52:13.697Z,12.73
2019-02-16T11:53:13.685Z,12.73
2019-02-16T11:54:13.675Z,12.62
2019-02-16T11:55:13.704Z,12.58
2019-02-16T11:56:13.653Z,12.47
2019-02-16T11:57:13.646Z,12.50
2019-02-16T11:58:13.628Z,12.49
2019-02-16T11:59:13.621Z,12.35
2019-02-16T12:00:13.641Z,12.32
2019-02-16T12:01:13.631Z,12.15
2019-02-16T12:02:13.583Z,12.03
2019-02-16T12:03:13.575Z,11.97
2019-02-16T12:04:13.561Z,11.91
2019-02-16T12:05:13.592Z,11.94
2019-02-16T12:06:13.537Z,12.35
2019-02-16T12:07:13.547Z,12.60
2019-02-16T12:08:13.514Z,12.83
2019-02-16T12:09:13.529Z,12.85
2019-02-16T12:10:13.525Z,12.90
2019-02-16T12:11:13.482Z,12.79
2019-02-16T12:12:13.480Z,12.70
2019-02-16T12:13:13.466Z,12.65
2019-02-16T12:14:13.449Z,12.55
2019-02-16T12:15:13.487Z,12.60
2019-02-16T12:16:13.423Z,12.61
2019-02-16T12:17:13.417Z,12.53
2019-02-16T12:18:13.404Z,12.49
2019-02-16T12:19:13.418Z,12.35
2019-02-16T12:20:13.386Z,12.46
2019-02-16T12:21:13.379Z,12.72
2019-02-16T12:22:13.381Z,12.90
2019-02-16T12:23:13.347Z,12.87
2019-02-16T12:24:13.335Z,12.90
2019-02-16T12:25:13.333Z,12.82
2019-02-16T12:26:13.311Z,12.61
2019-02-16T12:27:13.350Z,12.61
2019-02-16T12:28:13.291Z,12.72
2019-02-16T12:29:13.276Z,12.79
2019-02-16T12:30:13.272Z,12.72
2019-02-16T12:31:13.256Z,12.70
2019-02-16T12:32:13.286Z,12.75
2019-02-16T12:33:13.231Z,12.85
2019-02-16T12:34:13.271Z,12.90
2019-02-16T12:35:13.211Z,12.85
2019-02-16T12:36:13.196Z,12.95
2019-02-16T12:37:13.187Z,12.97
2019-02-16T12:38:13.173Z,13.04
2019-02-16T12:39:13.187Z,13.16
2019-02-16T12:40:13.183Z,13.05
2019-02-16T12:41:13.141Z,13.09
2019-02-16T12:42:13.139Z,13.13
2019-02-16T12:43:13.124Z,13.12
2019-02-16T12:44:13.152Z,13.15
2019-02-16T12:45:13.093Z,13.25
2019-02-16T12:46:13.095Z,13.05
2019-02-16T12:47:13.085Z,13.13
2019-02-16T12:48:13.075Z,12.93
2019-02-16T12:49:13.079Z,12.70
2019-02-16T12:50:13.036Z,12.68
2019-02-16T12:51:13.048Z,12.58
2019-02-16T12:52:13.023Z,12.67
2019-02-16T12:53:13.004Z,12.79
2019-02-16T12:54:13.018Z,12.82
2019-02-16T12:55:14.949Z,12.73
2019-02-16T12:56:12.979Z,12.73
2019-02-16T12:57:12.964Z,12.80
2019-02-16T12:58:12.947Z,12.76
2019-02-16T12:59:12.944Z,12.68
2019-02-16T13:00:12.952Z,12.62
2019-02-16T13:01:12.923Z,12.61
2019-02-16T13:02:12.903Z,12.58
2019-02-16T13:03:12.900Z,12.47
2019-02-16T13:04:12.905Z,12.45
2019-02-16T13:05:12.869Z,12.46
2019-02-16T13:06:12.890Z,12.57
2019-02-16T13:07:12.859Z,12.55
2019-02-16T13:08:12.852Z,12.46
2019-02-16T13:09:12.824Z,12.45
2019-02-16T13:10:12.818Z,12.40
2019-02-16T13:11:12.839Z,12.40